sensor_id;sensor_type;location;lat;lon;timestamp;P1;durP1;ratioP1;P2;durP2;ratioP2
19887;SDS011;10106;51.332;12.336;2023-05-27T00:02:05;665.90;;;210.63;;
19887;SDS011;10106;51.332;12.336;2023-05-27T00:04:31;643.80;;;242.27;;
19887;SDS011;10106;51.332;12.336;2023-05-27T00:06:57;722.67;;;328.93;;
19887;SDS011;10106;51.332;12.336;2023-05-27T00:09:23;623.15;;;188.55;;
19887;SDS011;10106;51.332;12.336;2023-05-27T00:11:48;668.77;;;206.33;;
19887;SDS011;10106;51.332;12.336;2023-05-27T00:14:14;672.53;;;217.43;;
19887;SDS011;10106;51.332;12.336;2023-05-27T00:16:45;669.10;;;225.97;;
19887;SDS011;10106;51.332;12.336;2023-05-27T00:19:11;650.60;;;188.17;;
19887;SDS011;10106;51.332;12.336;2023-05-27T00:21:37;612.80;;;184.33;;
19887;SDS011;10106;51.332;12.336;2023-05-27T00:24:03;613.13;;;170.27;;
19887;SDS011;10106;51.332;12.336;2023-05-27T00:26:29;614.03;;;171.97;;
19887;SDS011;10106;51.332;12.336;2023-05-27T00:28:58;619.27;;;181.47;;
19887;SDS011;10106;51.332;12.336;2023-05-27T00:31:24;612.80;;;186.20;;
19887;SDS011;10106;51.332;12.336;2023-05-27T00:33:50;620.03;;;188.83;;
19887;SDS011;10106;51.332;12.336;2023-05-27T00:36:16;617.47;;;185.63;;
19887;SDS011;10106;51.332;12.336;2023-05-27T00:38:42;608.17;;;156.70;;
19887;SDS011;10106;51.332;12.336;2023-05-27T00:41:11;617.43;;;168.00;;
19887;SDS011;10106;51.332;12.336;2023-05-27T00:43:38;611.97;;;156.87;;
19887;SDS011;10106;51.332;12.336;2023-05-27T00:46:03;614.73;;;164.63;;
19887;SDS011;10106;51.332;12.336;2023-05-27T00:48:33;616.53;;;175.37;;
19887;SDS011;10106;51.332;12.336;2023-05-27T00:51:03;609.30;;;152.17;;
19887;SDS011;10106;51.332;12.336;2023-05-27T00:53:29;615.93;;;163.70;;
19887;SDS011;10106;51.332;12.336;2023-05-27T00:56:07;609.03;;;151.07;;
19887;SDS011;10106;51.332;12.336;2023-05-27T00:58:36;611.57;;;152.47;;
19887;SDS011;10106;51.332;12.336;2023-05-27T01:01:03;608.50;;;147.50;;
19887;SDS011;10106;51.332;12.336;2023-05-27T01:03:29;609.57;;;149.57;;
19887;SDS011;10106;51.332;12.336;2023-05-27T01:15:03;608.50;;;156.60;;
19887;SDS011;10106;51.332;12.336;2023-05-27T01:17:32;619.80;;;160.40;;
19887;SDS011;10106;51.332;12.336;2023-05-27T01:20:02;628.80;;;171.67;;
19887;SDS011;10106;51.332;12.336;2023-05-27T01:22:35;610.50;;;151.47;;
19887;SDS011;10106;51.332;12.336;2023-05-27T01:25:01;614.33;;;157.60;;
19887;SDS011;10106;51.332;12.336;2023-05-27T01:27:28;618.90;;;169.20;;
19887;SDS011;10106;51.332;12.336;2023-05-27T01:29:56;611.93;;;168.27;;
19887;SDS011;10106;51.332;12.336;2023-05-27T01:37:28;620.17;;;156.57;;
19887;SDS011;10106;51.332;12.336;2023-05-27T01:39:59;669.77;;;202.47;;
19887;SDS011;10106;51.332;12.336;2023-05-27T01:42:28;644.90;;;213.20;;
19887;SDS011;10106;51.332;12.336;2023-05-27T01:44:54;648.97;;;211.13;;
19887;SDS011;10106;51.332;12.336;2023-05-27T01:47:21;604.33;;;180.80;;
19887;SDS011;10106;51.332;12.336;2023-05-27T01:49:47;619.47;;;239.10;;
19887;SDS011;10106;51.332;12.336;2023-05-27T01:52:12;604.43;;;173.57;;
19887;SDS011;10106;51.332;12.336;2023-05-27T01:54:38;663.50;;;181.30;;
19887;SDS011;10106;51.332;12.336;2023-05-27T01:57:04;658.40;;;182.00;;
19887;SDS011;10106;51.332;12.336;2023-05-27T01:59:31;662.67;;;187.53;;
19887;SDS011;10106;51.332;12.336;2023-05-27T02:01:57;641.87;;;163.43;;
19887;SDS011;10106;51.332;12.336;2023-05-27T02:04:22;632.43;;;154.30;;
19887;SDS011;10106;51.332;12.336;2023-05-27T02:06:48;651.40;;;165.13;;
19887;SDS011;10106;51.332;12.336;2023-05-27T02:09:17;653.70;;;169.53;;
19887;SDS011;10106;51.332;12.336;2023-05-27T02:11:43;645.70;;;159.63;;
19887;SDS011;10106;51.332;12.336;2023-05-27T02:14:09;637.60;;;155.83;;
19887;SDS011;10106;51.332;12.336;2023-05-27T02:16:35;660.00;;;171.50;;
19887;SDS011;10106;51.332;12.336;2023-05-27T02:19:01;651.37;;;161.30;;
19887;SDS011;10106;51.332;12.336;2023-05-27T02:21:27;653.03;;;155.20;;
19887;SDS011;10106;51.332;12.336;2023-05-27T02:23:56;649.03;;;158.10;;
19887;SDS011;10106;51.332;12.336;2023-05-27T02:26:23;653.80;;;167.90;;
19887;SDS011;10106;51.332;12.336;2023-05-27T02:28:48;649.80;;;152.80;;
19887;SDS011;10106;51.332;12.336;2023-05-27T02:31:15;655.93;;;166.93;;
19887;SDS011;10106;51.332;12.336;2023-05-27T02:33:40;653.80;;;168.40;;
19887;SDS011;10106;51.332;12.336;2023-05-27T02:36:06;655.47;;;170.40;;
19887;SDS011;10106;51.332;12.336;2023-05-27T02:38:32;651.60;;;166.37;;
19887;SDS011;10106;51.332;12.336;2023-05-27T02:40:58;654.67;;;166.17;;
19887;SDS011;10106;51.332;12.336;2023-05-27T02:43:23;658.10;;;166.27;;
19887;SDS011;10106;51.332;12.336;2023-05-27T02:45:49;642.43;;;156.80;;
19887;SDS011;10106;51.332;12.336;2023-05-27T02:48:15;639.27;;;151.70;;
19887;SDS011;10106;51.332;12.336;2023-05-27T02:50:41;637.63;;;150.80;;
19887;SDS011;10106;51.332;12.336;2023-05-27T02:53:07;653.47;;;162.50;;
19887;SDS011;10106;51.332;12.336;2023-05-27T02:55:33;656.77;;;170.87;;
19887;SDS011;10106;51.332;12.336;2023-05-27T02:57:59;665.20;;;174.33;;
19887;SDS011;10106;51.332;12.336;2023-05-27T03:00:24;661.90;;;174.97;;
19887;SDS011;10106;51.332;12.336;2023-05-27T03:02:50;663.17;;;172.60;;
19887;SDS011;10106;51.332;12.336;2023-05-27T03:05:16;651.30;;;159.13;;
19887;SDS011;10106;51.332;12.336;2023-05-27T03:07:42;643.40;;;150.40;;
19887;SDS011;10106;51.332;12.336;2023-05-27T03:10:07;655.43;;;163.27;;
19887;SDS011;10106;51.332;12.336;2023-05-27T03:12:33;663.67;;;168.90;;
19887;SDS011;10106;51.332;12.336;2023-05-27T03:14:59;664.70;;;167.87;;
19887;SDS011;10106;51.332;12.336;2023-05-27T03:17:26;666.07;;;168.20;;
19887;SDS011;10106;51.332;12.336;2023-05-27T03:19:52;665.23;;;170.87;;
19887;SDS011;10106;51.332;12.336;2023-05-27T03:22:17;664.67;;;177.23;;
19887;SDS011;10106;51.332;12.336;2023-05-27T03:24:43;665.63;;;175.50;;
19887;SDS011;10106;51.332;12.336;2023-05-27T03:27:09;663.13;;;171.97;;
19887;SDS011;10106;51.332;12.336;2023-05-27T03:29:35;666.03;;;178.67;;
19887;SDS011;10106;51.332;12.336;2023-05-27T03:32:01;665.97;;;174.07;;
19887;SDS011;10106;51.332;12.336;2023-05-27T03:34:27;661.23;;;171.97;;
19887;SDS011;10106;51.332;12.336;2023-05-27T03:36:53;665.27;;;177.83;;
19887;SDS011;10106;51.332;12.336;2023-05-27T03:39:19;665.77;;;180.80;;
19887;SDS011;10106;51.332;12.336;2023-05-27T03:41:44;666.63;;;182.70;;
19887;SDS011;10106;51.332;12.336;2023-05-27T03:44:10;661.60;;;171.63;;
19887;SDS011;10106;51.332;12.336;2023-05-27T03:46:36;670.10;;;195.27;;
19887;SDS011;10106;51.332;12.336;2023-05-27T03:49:02;673.70;;;198.47;;
19887;SDS011;10106;51.332;12.336;2023-05-27T03:51:27;677.90;;;208.63;;
19887;SDS011;10106;51.332;12.336;2023-05-27T03:53:53;678.63;;;224.47;;
19887;SDS011;10106;51.332;12.336;2023-05-27T03:56:19;678.10;;;227.83;;
19887;SDS011;10106;51.332;12.336;2023-05-27T03:58:45;692.83;;;262.40;;
19887;SDS011;10106;51.332;12.336;2023-05-27T04:01:11;694.70;;;273.47;;
19887;SDS011;10106;51.332;12.336;2023-05-27T04:03:37;700.67;;;296.17;;
19887;SDS011;10106;51.332;12.336;2023-05-27T04:06:05;713.20;;;324.67;;
19887;SDS011;10106;51.332;12.336;2023-05-27T04:08:31;712.63;;;343.43;;
19887;SDS011;10106;51.332;12.336;2023-05-27T04:10:57;728.07;;;374.20;;
19887;SDS011;10106;51.332;12.336;2023-05-27T04:13:23;728.83;;;409.80;;
19887;SDS011;10106;51.332;12.336;2023-05-27T04:15:48;733.63;;;451.20;;
19887;SDS011;10106;51.332;12.336;2023-05-27T04:18:14;743.43;;;474.03;;
19887;SDS011;10106;51.332;12.336;2023-05-27T04:20:41;743.07;;;502.30;;
19887;SDS011;10106;51.332;12.336;2023-05-27T04:23:11;754.53;;;542.87;;
19887;SDS011;10106;51.332;12.336;2023-05-27T04:25:37;755.73;;;560.30;;
19887;SDS011;10106;51.332;12.336;2023-05-27T04:28:04;771.07;;;625.17;;
19887;SDS011;10106;51.332;12.336;2023-05-27T04:30:31;717.07;;;473.87;;
19887;SDS011;10106;51.332;12.336;2023-05-27T04:32:58;781.63;;;676.77;;
19887;SDS011;10106;51.332;12.336;2023-05-27T04:35:27;761.30;;;634.77;;
19887;SDS011;10106;51.332;12.336;2023-05-27T04:37:56;828.90;;;740.43;;
19887;SDS011;10106;51.332;12.336;2023-05-27T04:40:24;860.20;;;770.13;;
19887;SDS011;10106;51.332;12.336;2023-05-27T04:42:50;873.27;;;783.57;;
19887;SDS011;10106;51.332;12.336;2023-05-27T04:45:16;898.53;;;808.07;;
19887;SDS011;10106;51.332;12.336;2023-05-27T04:47:43;918.07;;;826.93;;
19887;SDS011;10106;51.332;12.336;2023-05-27T04:50:09;933.23;;;841.80;;
19887;SDS011;10106;51.332;12.336;2023-05-27T04:52:36;924.20;;;834.23;;
19887;SDS011;10106;51.332;12.336;2023-05-27T04:55:07;963.07;;;870.47;;
19887;SDS011;10106;51.332;12.336;2023-05-27T04:57:34;980.27;;;887.00;;
19887;SDS011;10106;51.332;12.336;2023-05-27T05:00:02;987.40;;;893.37;;
19887;SDS011;10106;51.332;12.336;2023-05-27T05:07:40;1005.43;;;911.03;;
19887;SDS011;10106;51.332;12.336;2023-05-27T05:10:07;1019.07;;;924.17;;
19887;SDS011;10106;51.332;12.336;2023-05-27T05:12:34;1018.07;;;923.20;;
19887;SDS011;10106;51.332;12.336;2023-05-27T05:15:01;1014.07;;;919.70;;
19887;SDS011;10106;51.332;12.336;2023-05-27T05:17:28;887.90;;;799.80;;
19887;SDS011;10106;51.332;12.336;2023-05-27T05:19:53;737.77;;;606.50;;
19887;SDS011;10106;51.332;12.336;2023-05-27T05:22:20;956.90;;;866.60;;
19887;SDS011;10106;51.332;12.336;2023-05-27T05:24:48;1009.47;;;915.70;;
19887;SDS011;10106;51.332;12.336;2023-05-27T05:27:15;994.53;;;901.43;;
19887;SDS011;10106;51.332;12.336;2023-05-27T05:29:41;1004.73;;;910.53;;
19887;SDS011;10106;51.332;12.336;2023-05-27T05:32:07;995.50;;;902.27;;
19887;SDS011;10106;51.332;12.336;2023-05-27T05:34:36;1024.63;;;929.43;;
19887;SDS011;10106;51.332;12.336;2023-05-27T05:37:05;1027.80;;;933.83;;
19887;SDS011;10106;51.332;12.336;2023-05-27T05:39:31;1034.03;;;939.57;;
19887;SDS011;10106;51.332;12.336;2023-05-27T05:41:57;1064.87;;;968.90;;
19887;SDS011;10106;51.332;12.336;2023-05-27T05:44:24;1063.53;;;967.13;;
19887;SDS011;10106;51.332;12.336;2023-05-27T05:46:51;1311.35;;;999.90;;
19887;SDS011;10106;51.332;12.336;2023-05-27T05:49:17;1341.93;;;999.90;;
19887;SDS011;10106;51.332;12.336;2023-05-27T05:51:43;1355.93;;;999.90;;
19887;SDS011;10106;51.332;12.336;2023-05-27T05:54:09;1378.70;;;999.90;;
19887;SDS011;10106;51.332;12.336;2023-05-27T05:56:35;1382.03;;;999.90;;
19887;SDS011;10106;51.332;12.336;2023-05-27T05:59:01;1327.90;;;999.90;;
19887;SDS011;10106;51.332;12.336;2023-05-27T06:30:36;1396.60;;;999.90;;
19887;SDS011;10106;51.332;12.336;2023-05-27T06:33:02;1377.70;;;999.90;;
19887;SDS011;10106;51.332;12.336;2023-05-27T06:35:28;1400.50;;;999.90;;
19887;SDS011;10106;51.332;12.336;2023-05-27T06:37:54;1406.22;;;999.90;;
19887;SDS011;10106;51.332;12.336;2023-05-27T06:40:20;1168.80;;;999.90;;
19887;SDS011;10106;51.332;12.336;2023-05-27T06:42:46;1350.95;;;999.90;;
19887;SDS011;10106;51.332;12.336;2023-05-27T06:45:12;1363.05;;;999.90;;
19887;SDS011;10106;51.332;12.336;2023-05-27T06:47:38;1386.60;;;999.90;;
19887;SDS011;10106;51.332;12.336;2023-05-27T06:50:04;1384.45;;;999.90;;
19887;SDS011;10106;51.332;12.336;2023-05-27T06:52:30;1384.73;;;999.90;;
19887;SDS011;10106;51.332;12.336;2023-05-27T06:54:56;1382.53;;;999.90;;
19887;SDS011;10106;51.332;12.336;2023-05-27T06:57:22;1376.20;;;999.90;;
19887;SDS011;10106;51.332;12.336;2023-05-27T06:59:48;1219.47;;;999.90;;
19887;SDS011;10106;51.332;12.336;2023-05-27T07:02:13;1234.50;;;999.90;;
19887;SDS011;10106;51.332;12.336;2023-05-27T07:04:39;1221.70;;;999.90;;
19887;SDS011;10106;51.332;12.336;2023-05-27T07:07:05;1210.07;;;999.90;;
19887;SDS011;10106;51.332;12.336;2023-05-27T07:09:31;1201.80;;;999.90;;
19887;SDS011;10106;51.332;12.336;2023-05-27T07:11:57;1130.40;;;999.90;;
19887;SDS011;10106;51.332;12.336;2023-05-27T07:14:22;1210.13;;;999.90;;
19887;SDS011;10106;51.332;12.336;2023-05-27T07:16:48;1205.10;;;999.90;;
19887;SDS011;10106;51.332;12.336;2023-05-27T07:19:14;1206.63;;;999.90;;
19887;SDS011;10106;51.332;12.336;2023-05-27T07:21:40;1205.50;;;999.90;;
19887;SDS011;10106;51.332;12.336;2023-05-27T07:24:06;1211.93;;;999.90;;
19887;SDS011;10106;51.332;12.336;2023-05-27T07:26:32;1197.20;;;999.90;;
19887;SDS011;10106;51.332;12.336;2023-05-27T07:28:59;1192.00;;;999.90;;
19887;SDS011;10106;51.332;12.336;2023-05-27T07:31:26;1199.10;;;999.90;;
19887;SDS011;10106;51.332;12.336;2023-05-27T07:33:52;1189.90;;;999.90;;
19887;SDS011;10106;51.332;12.336;2023-05-27T07:36:18;1191.13;;;999.90;;
19887;SDS011;10106;51.332;12.336;2023-05-27T07:38:43;1187.53;;;999.90;;
19887;SDS011;10106;51.332;12.336;2023-05-27T07:41:09;1190.90;;;999.90;;
19887;SDS011;10106;51.332;12.336;2023-05-27T07:43:35;1149.43;;;999.90;;
19887;SDS011;10106;51.332;12.336;2023-05-27T07:46:01;1109.83;;;999.90;;
19887;SDS011;10106;51.332;12.336;2023-05-27T07:48:28;1101.37;;;998.77;;
19887;SDS011;10106;51.332;12.336;2023-05-27T07:50:54;1080.63;;;987.67;;
19887;SDS011;10106;51.332;12.336;2023-05-27T07:53:20;1077.27;;;984.87;;
19887;SDS011;10106;51.332;12.336;2023-05-27T07:55:46;1042.27;;;952.07;;
19887;SDS011;10106;51.332;12.336;2023-05-27T07:58:12;1038.07;;;947.70;;
19887;SDS011;10106;51.332;12.336;2023-05-27T08:00:38;1049.80;;;959.13;;
19887;SDS011;10106;51.332;12.336;2023-05-27T08:03:04;1045.87;;;954.80;;
19887;SDS011;10106;51.332;12.336;2023-05-27T08:05:31;1045.17;;;954.67;;
19887;SDS011;10106;51.332;12.336;2023-05-27T08:07:57;1046.60;;;955.90;;
19887;SDS011;10106;51.332;12.336;2023-05-27T08:10:23;1053.67;;;962.03;;
19887;SDS011;10106;51.332;12.336;2023-05-27T08:12:53;1099.43;;;999.90;;
19887;SDS011;10106;51.332;12.336;2023-05-27T08:15:18;1091.70;;;995.70;;
19887;SDS011;10106;51.332;12.336;2023-05-27T08:17:45;1137.13;;;999.90;;
19887;SDS011;10106;51.332;12.336;2023-05-27T08:20:11;1143.30;;;999.90;;
19887;SDS011;10106;51.332;12.336;2023-05-27T08:22:37;1156.50;;;999.90;;
19887;SDS011;10106;51.332;12.336;2023-05-27T08:25:03;1170.33;;;999.90;;
19887;SDS011;10106;51.332;12.336;2023-05-27T08:27:44;1200.37;;;999.90;;
19887;SDS011;10106;51.332;12.336;2023-05-27T08:30:12;1155.53;;;999.90;;
19887;SDS011;10106;51.332;12.336;2023-05-27T08:32:39;1087.00;;;988.53;;
19887;SDS011;10106;51.332;12.336;2023-05-27T08:35:06;1178.87;;;999.90;;
19887;SDS011;10106;51.332;12.336;2023-05-27T08:37:32;1170.47;;;999.90;;
19887;SDS011;10106;51.332;12.336;2023-05-27T08:40:00;1158.37;;;999.90;;
19887;SDS011;10106;51.332;12.336;2023-05-27T08:42:38;1133.10;;;999.90;;
19887;SDS011;10106;51.332;12.336;2023-05-27T08:45:06;1141.60;;;999.90;;
19887;SDS011;10106;51.332;12.336;2023-05-27T08:47:46;1161.40;;;999.90;;
19887;SDS011;10106;51.332;12.336;2023-05-27T08:50:14;1158.87;;;999.90;;
19887;SDS011;10106;51.332;12.336;2023-05-27T08:52:44;1146.63;;;999.90;;
19887;SDS011;10106;51.332;12.336;2023-05-27T08:55:21;1150.27;;;999.90;;
19887;SDS011;10106;51.332;12.336;2023-05-27T08:57:57;1145.70;;;999.90;;
19887;SDS011;10106;51.332;12.336;2023-05-27T09:00:26;1158.43;;;999.90;;
19887;SDS011;10106;51.332;12.336;2023-05-27T09:02:52;1163.73;;;999.90;;
19887;SDS011;10106;51.332;12.336;2023-05-27T09:05:24;1169.10;;;999.90;;
19887;SDS011;10106;51.332;12.336;2023-05-27T09:07:50;1172.50;;;999.90;;
19887;SDS011;10106;51.332;12.336;2023-05-27T09:10:16;1157.93;;;999.90;;
19887;SDS011;10106;51.332;12.336;2023-05-27T09:12:45;1177.33;;;999.90;;
19887;SDS011;10106;51.332;12.336;2023-05-27T09:15:11;1169.00;;;999.90;;
19887;SDS011;10106;51.332;12.336;2023-05-27T09:17:41;1181.00;;;999.90;;
19887;SDS011;10106;51.332;12.336;2023-05-27T09:20:08;1177.77;;;999.90;;
19887;SDS011;10106;51.332;12.336;2023-05-27T09:22:38;1165.33;;;999.90;;
19887;SDS011;10106;51.332;12.336;2023-05-27T09:25:05;1170.60;;;999.90;;
19887;SDS011;10106;51.332;12.336;2023-05-27T09:27:32;1162.73;;;999.90;;
19887;SDS011;10106;51.332;12.336;2023-05-27T09:29:58;1151.57;;;999.90;;
19887;SDS011;10106;51.332;12.336;2023-05-27T09:32:32;1142.20;;;999.90;;
19887;SDS011;10106;51.332;12.336;2023-05-27T09:34:59;1141.40;;;999.90;;
19887;SDS011;10106;51.332;12.336;2023-05-27T09:37:26;1149.20;;;999.90;;
19887;SDS011;10106;51.332;12.336;2023-05-27T09:39:59;1167.53;;;999.90;;
19887;SDS011;10106;51.332;12.336;2023-05-27T09:42:46;1172.57;;;999.90;;
19887;SDS011;10106;51.332;12.336;2023-05-27T09:45:13;1186.70;;;999.90;;
19887;SDS011;10106;51.332;12.336;2023-05-27T09:47:42;1187.83;;;999.90;;
19887;SDS011;10106;51.332;12.336;2023-05-27T09:50:18;1186.50;;;999.90;;
19887;SDS011;10106;51.332;12.336;2023-05-27T09:52:47;1172.87;;;999.90;;
19887;SDS011;10106;51.332;12.336;2023-05-27T09:55:14;1172.87;;;999.90;;
19887;SDS011;10106;51.332;12.336;2023-05-27T09:57:43;1155.13;;;999.90;;
19887;SDS011;10106;51.332;12.336;2023-05-27T10:00:10;1158.83;;;999.90;;
19887;SDS011;10106;51.332;12.336;2023-05-27T10:02:40;1154.17;;;999.90;;
19887;SDS011;10106;51.332;12.336;2023-05-27T10:05:15;1148.50;;;999.90;;
19887;SDS011;10106;51.332;12.336;2023-05-27T10:07:42;1137.40;;;999.90;;
19887;SDS011;10106;51.332;12.336;2023-05-27T10:10:16;1121.70;;;999.90;;
19887;SDS011;10106;51.332;12.336;2023-05-27T10:12:49;1102.03;;;999.40;;
19887;SDS011;10106;51.332;12.336;2023-05-27T10:15:23;1059.20;;;964.03;;
19887;SDS011;10106;51.332;12.336;2023-05-27T10:17:54;1046.40;;;952.03;;
19887;SDS011;10106;51.332;12.336;2023-05-27T10:20:34;1012.00;;;918.83;;
19887;SDS011;10106;51.332;12.336;2023-05-27T10:23:12;846.90;;;732.70;;
19887;SDS011;10106;51.332;12.336;2023-05-27T10:25:47;828.75;;;551.85;;
19887;SDS011;10106;51.332;12.336;2023-05-27T10:28:25;866.73;;;776.43;;
19887;SDS011;10106;51.332;12.336;2023-05-27T10:33:34;745.30;;;669.30;;
19887;SDS011;10106;51.332;12.336;2023-05-27T10:36:11;700.30;;;569.10;;
19887;SDS011;10106;51.332;12.336;2023-05-27T10:38:38;838.33;;;754.50;;
19887;SDS011;10106;51.332;12.336;2023-05-27T10:50:57;1301.40;;;999.90;;
19887;SDS011;10106;51.332;12.336;2023-05-27T10:53:25;855.43;;;771.13;;
19887;SDS011;10106;51.332;12.336;2023-05-27T10:55:52;852.83;;;768.33;;
19887;SDS011;10106;51.332;12.336;2023-05-27T10:58:19;792.07;;;710.03;;
19887;SDS011;10106;51.332;12.336;2023-05-27T11:00:50;815.90;;;732.20;;
19887;SDS011;10106;51.332;12.336;2023-05-27T11:03:20;820.43;;;736.47;;
19887;SDS011;10106;51.332;12.336;2023-05-27T11:08:42;766.17;;;684.17;;
19887;SDS011;10106;51.332;12.336;2023-05-27T11:11:09;780.50;;;698.27;;
19887;SDS011;10106;51.332;12.336;2023-05-27T11:13:36;778.00;;;696.10;;
19887;SDS011;10106;51.332;12.336;2023-05-27T11:16:08;767.20;;;686.10;;
19887;SDS011;10106;51.332;12.336;2023-05-27T11:18:42;787.47;;;705.10;;
19887;SDS011;10106;51.332;12.336;2023-05-27T11:21:11;786.07;;;703.90;;
19887;SDS011;10106;51.332;12.336;2023-05-27T11:23:42;785.67;;;703.80;;
19887;SDS011;10106;51.332;12.336;2023-05-27T11:26:15;821.53;;;738.63;;
19887;SDS011;10106;51.332;12.336;2023-05-27T11:28:47;822.67;;;739.03;;
19887;SDS011;10106;51.332;12.336;2023-05-27T11:31:18;726.93;;;526.57;;
19887;SDS011;10106;51.332;12.336;2023-05-27T11:33:45;786.83;;;704.27;;
19887;SDS011;10106;51.332;12.336;2023-05-27T11:36:15;820.67;;;737.10;;
19887;SDS011;10106;51.332;12.336;2023-05-27T11:38:51;776.90;;;694.80;;
19887;SDS011;10106;51.332;12.336;2023-05-27T11:41:19;844.90;;;761.20;;
19887;SDS011;10106;51.332;12.336;2023-05-27T11:46:15;810.83;;;728.30;;
19887;SDS011;10106;51.332;12.336;2023-05-27T11:48:42;799.40;;;716.93;;
19887;SDS011;10106;51.332;12.336;2023-05-27T11:51:08;831.93;;;748.37;;
19887;SDS011;10106;51.332;12.336;2023-05-27T11:53:44;816.27;;;733.30;;
19887;SDS011;10106;51.332;12.336;2023-05-27T11:56:10;831.87;;;748.47;;
19887;SDS011;10106;51.332;12.336;2023-05-27T11:58:36;781.90;;;699.93;;
19887;SDS011;10106;51.332;12.336;2023-05-27T12:01:02;829.00;;;745.67;;
19887;SDS011;10106;51.332;12.336;2023-05-27T12:03:33;823.07;;;740.47;;
19887;SDS011;10106;51.332;12.336;2023-05-27T12:05:59;814.57;;;731.97;;
19887;SDS011;10106;51.332;12.336;2023-05-27T12:08:25;839.33;;;755.87;;
19887;SDS011;10106;51.332;12.336;2023-05-27T12:10:51;837.53;;;754.13;;
19887;SDS011;10106;51.332;12.336;2023-05-27T12:13:19;822.93;;;739.57;;
19887;SDS011;10106;51.332;12.336;2023-05-27T12:15:49;824.63;;;741.90;;
19887;SDS011;10106;51.332;12.336;2023-05-27T12:18:15;775.40;;;694.10;;
19887;SDS011;10106;51.332;12.336;2023-05-27T12:20:43;806.27;;;723.63;;
19887;SDS011;10106;51.332;12.336;2023-05-27T12:23:09;834.40;;;750.73;;
19887;SDS011;10106;51.332;12.336;2023-05-27T12:25:35;833.90;;;750.50;;
19887;SDS011;10106;51.332;12.336;2023-05-27T12:28:00;798.03;;;715.97;;
19887;SDS011;10106;51.332;12.336;2023-05-27T12:30:26;829.73;;;746.03;;
19887;SDS011;10106;51.332;12.336;2023-05-27T12:32:52;842.03;;;758.37;;
19887;SDS011;10106;51.332;12.336;2023-05-27T12:35:19;834.60;;;751.00;;
19887;SDS011;10106;51.332;12.336;2023-05-27T12:37:45;823.87;;;740.93;;
19887;SDS011;10106;51.332;12.336;2023-05-27T12:40:11;839.60;;;756.63;;
19887;SDS011;10106;51.332;12.336;2023-05-27T12:42:40;809.97;;;727.73;;
19887;SDS011;10106;51.332;12.336;2023-05-27T12:45:08;845.77;;;762.37;;
19887;SDS011;10106;51.332;12.336;2023-05-27T12:47:34;819.77;;;737.03;;
19887;SDS011;10106;51.332;12.336;2023-05-27T12:50:00;828.03;;;744.73;;
19887;SDS011;10106;51.332;12.336;2023-05-27T12:52:26;829.37;;;745.97;;
19887;SDS011;10106;51.332;12.336;2023-05-27T12:54:53;798.93;;;716.97;;
19887;SDS011;10106;51.332;12.336;2023-05-27T12:57:19;794.37;;;712.23;;
19887;SDS011;10106;51.332;12.336;2023-05-27T12:59:48;834.97;;;751.40;;
19887;SDS011;10106;51.332;12.336;2023-05-27T13:02:14;807.20;;;724.73;;
19887;SDS011;10106;51.332;12.336;2023-05-27T13:04:40;846.77;;;762.97;;
19887;SDS011;10106;51.332;12.336;2023-05-27T13:07:09;801.07;;;718.80;;
19887;SDS011;10106;51.332;12.336;2023-05-27T13:09:35;848.60;;;765.00;;
19887;SDS011;10106;51.332;12.336;2023-05-27T13:12:01;791.57;;;709.83;;
19887;SDS011;10106;51.332;12.336;2023-05-27T13:14:27;793.87;;;711.70;;
19887;SDS011;10106;51.332;12.336;2023-05-27T13:16:53;784.67;;;702.60;;
19887;SDS011;10106;51.332;12.336;2023-05-27T13:19:19;830.57;;;747.40;;
19887;SDS011;10106;51.332;12.336;2023-05-27T13:21:45;820.33;;;736.30;;
19887;SDS011;10106;51.332;12.336;2023-05-27T13:24:13;787.37;;;705.57;;
19887;SDS011;10106;51.332;12.336;2023-05-27T13:26:39;836.30;;;752.50;;
19887;SDS011;10106;51.332;12.336;2023-05-27T13:29:05;837.00;;;753.97;;
19887;SDS011;10106;51.332;12.336;2023-05-27T13:31:35;826.13;;;743.60;;
19887;SDS011;10106;51.332;12.336;2023-05-27T13:34:00;831.90;;;748.20;;
19887;SDS011;10106;51.332;12.336;2023-05-27T13:36:26;833.07;;;748.57;;
19887;SDS011;10106;51.332;12.336;2023-05-27T13:38:52;847.77;;;764.07;;
19887;SDS011;10106;51.332;12.336;2023-05-27T13:41:17;845.13;;;761.77;;
19887;SDS011;10106;51.332;12.336;2023-05-27T13:43:43;857.70;;;773.60;;
19887;SDS011;10106;51.332;12.336;2023-05-27T13:46:09;826.50;;;743.70;;
19887;SDS011;10106;51.332;12.336;2023-05-27T13:48:35;856.40;;;772.40;;
19887;SDS011;10106;51.332;12.336;2023-05-27T13:51:02;838.73;;;755.90;;
19887;SDS011;10106;51.332;12.336;2023-05-27T13:53:28;874.77;;;789.10;;
19887;SDS011;10106;51.332;12.336;2023-05-27T13:55:54;837.10;;;754.03;;
19887;SDS011;10106;51.332;12.336;2023-05-27T13:58:20;848.47;;;764.87;;
19887;SDS011;10106;51.332;12.336;2023-05-27T14:00:45;840.97;;;757.90;;
19887;SDS011;10106;51.332;12.336;2023-05-27T14:03:11;825.73;;;743.30;;
19887;SDS011;10106;51.332;12.336;2023-05-27T14:05:37;822.07;;;739.97;;
19887;SDS011;10106;51.332;12.336;2023-05-27T14:08:09;804.87;;;723.00;;
19887;SDS011;10106;51.332;12.336;2023-05-27T14:10:51;833.37;;;750.50;;
19887;SDS011;10106;51.332;12.336;2023-05-27T14:13:22;881.73;;;797.13;;
19887;SDS011;10106;51.332;12.336;2023-05-27T14:15:50;861.27;;;777.47;;
19887;SDS011;10106;51.332;12.336;2023-05-27T14:18:16;842.23;;;759.17;;
19887;SDS011;10106;51.332;12.336;2023-05-27T14:20:46;858.33;;;774.57;;
19887;SDS011;10106;51.332;12.336;2023-05-27T14:23:13;877.40;;;792.27;;
19887;SDS011;10106;51.332;12.336;2023-05-27T14:25:41;878.90;;;792.70;;
19887;SDS011;10106;51.332;12.336;2023-05-27T14:28:07;858.03;;;773.23;;
19887;SDS011;10106;51.332;12.336;2023-05-27T14:30:34;852.73;;;768.83;;
19887;SDS011;10106;51.332;12.336;2023-05-27T14:33:03;839.50;;;756.50;;
19887;SDS011;10106;51.332;12.336;2023-05-27T14:35:33;874.30;;;790.00;;
19887;SDS011;10106;51.332;12.336;2023-05-27T14:38:00;858.17;;;774.47;;
19887;SDS011;10106;51.332;12.336;2023-05-27T14:40:27;858.03;;;774.47;;
19887;SDS011;10106;51.332;12.336;2023-05-27T14:42:53;902.57;;;817.50;;
19887;SDS011;10106;51.332;12.336;2023-05-27T14:45:20;858.67;;;774.60;;
19887;SDS011;10106;51.332;12.336;2023-05-27T14:47:47;748.60;;;666.20;;
19887;SDS011;10106;51.332;12.336;2023-05-27T14:50:15;856.77;;;771.33;;